createdAt,value
2022-12-10T00:03:58.140Z,100413.09
2022-12-10T00:07:59.621Z,100404.59
2022-12-10T00:12:01.067Z,100409.97
2022-12-10T00:16:04.136Z,100407.22
2022-12-10T00:20:06.493Z,100413.78
2022-12-10T00:24:08.418Z,100411.59
2022-12-10T00:28:09.905Z,100407.53
2022-12-10T00:32:11.373Z,100408.94
2022-12-10T00:36:18.963Z,100413.06
2022-12-10T00:40:20.450Z,100412.19
2022-12-10T00:44:22.093Z,100423.47
2022-12-10T00:48:23.896Z,100418.16
2022-12-10T00:52:25.518Z,100422.03
2022-12-10T00:56:33.317Z,100428.31
2022-12-10T01:00:34.773Z,100417.91
2022-12-10T01:04:36.294Z,100416.03
2022-12-10T01:08:38.327Z,100421.09
2022-12-10T01:12:39.757Z,100422.13
2022-12-10T01:16:41.357Z,100431.63
2022-12-10T01:20:42.830Z,100426.19
2022-12-10T01:24:44.354Z,100424.91
2022-12-10T01:28:46.441Z,100420.53
2022-12-10T01:32:47.869Z,100408.78
2022-12-10T01:36:52.422Z,100421.09
2022-12-10T01:40:53.882Z,100414.94
2022-12-10T01:45:00.000Z,100410.13
2022-12-10T01:49:04.928Z,100410.94
2022-12-10T01:53:07.142Z,100423.19
2022-12-10T01:57:10.576Z,100414.56
2022-12-10T02:01:12.035Z,100417.75
2022-12-10T02:05:26.318Z,100409.66
2022-12-10T02:09:45.059Z,100412.13
2022-12-10T02:13:56.788Z,100399.59
2022-12-10T02:18:05.524Z,100409.66
2022-12-10T02:22:08.804Z,100406.06
2022-12-10T02:26:17.654Z,100406.25
2022-12-10T02:30:19.919Z,100405.25
2022-12-10T02:34:24.048Z,100406.28
2022-12-10T02:38:32.942Z,100400.06
2022-12-10T02:42:38.958Z,100404.56
2022-12-10T02:46:42.960Z,100407.94
2022-12-10T02:50:44.460Z,100404.63
2022-12-10T02:54:48.254Z,100415.59
2022-12-10T02:59:07.478Z,100414.97
2022-12-10T03:03:24.149Z,100409.06
2022-12-10T03:07:50.498Z,100422.59
2022-12-10T03:12:03.122Z,100431.88
2022-12-10T03:16:05.850Z,100432.16
2022-12-10T03:20:13.748Z,100430.16
2022-12-10T03:24:17.360Z,100434.78
2022-12-10T03:28:21.022Z,100434.41
2022-12-10T03:32:25.984Z,100436.50
2022-12-10T03:36:29.706Z,100433.50
2022-12-10T03:40:32.582Z,100433.59
2022-12-10T03:44:36.683Z,100439.53
2022-12-10T03:48:38.105Z,100431.59
2022-12-10T03:52:39.593Z,100448.25
2022-12-10T03:56:41.154Z,100442.09
2022-12-10T04:00:42.619Z,100446.19
2022-12-10T04:04:44.211Z,100444.81
2022-12-10T04:08:46.862Z,100448.97
2022-12-10T04:13:08.269Z,100452.03
2022-12-10T04:17:09.951Z,100451.09
2022-12-10T04:21:30.093Z,100446.72
2022-12-10T04:25:49.858Z,100443.19
2022-12-10T04:29:51.603Z,100438.09
2022-12-10T04:33:53.041Z,100439.59
2022-12-10T04:37:54.441Z,100439.34
2022-12-10T04:41:55.896Z,100444.59
2022-12-10T04:45:57.532Z,100445.81
2022-12-10T04:49:59.036Z,100452.69
2022-12-10T04:54:01.030Z,100452.81
2022-12-10T04:58:02.972Z,100452.31
2022-12-10T05:02:05.973Z,100448.81
2022-12-10T05:06:13.234Z,100453.34
2022-12-10T05:10:14.794Z,100454.22
2022-12-10T05:14:16.600Z,100457.44
2022-12-10T05:18:18.030Z,100449.75
2022-12-10T05:22:37.984Z,100455.88
2022-12-10T05:26:39.501Z,100450.88
2022-12-10T05:30:40.987Z,100458.91
2022-12-10T05:34:42.427Z,100456.84
2022-12-10T05:38:44.490Z,100456.00
2022-12-10T05:42:47.013Z,100465.44
2022-12-10T05:46:48.475Z,100460.03
2022-12-10T05:50:49.925Z,100459.41
2022-12-10T05:54:51.357Z,100460.16
2022-12-10T05:58:57.696Z,100456.81
2022-12-10T06:02:59.171Z,100453.53
2022-12-10T06:07:00.615Z,100456.28
2022-12-10T06:11:06.947Z,100454.09
2022-12-10T06:15:08.868Z,100454.16
2022-12-10T06:19:10.361Z,100449.56
2022-12-10T06:23:11.753Z,100446.75
2022-12-10T06:27:13.222Z,100458.22
2022-12-10T06:31:16.279Z,100465.84
2022-12-10T06:35:18.117Z,100456.91
2022-12-10T06:39:19.534Z,100460.94
2022-12-10T06:43:21.017Z,100477.72
2022-12-10T06:47:22.558Z,100481.66
2022-12-10T06:51:24.026Z,100480.72
2022-12-10T06:55:25.464Z,100479.91
2022-12-10T06:59:26.951Z,100490.19
2022-12-10T07:03:28.415Z,100490.06
2022-12-10T07:07:29.939Z,100491.25
2022-12-10T07:11:31.924Z,100502.28
2022-12-10T07:15:33.414Z,100498.56
2022-12-10T07:19:34.897Z,100499.94
2022-12-10T07:23:36.327Z,100495.03
2022-12-10T07:27:38.315Z,100497.16
2022-12-10T07:31:39.914Z,100497.44
2022-12-10T07:35:46.003Z,100499.28
2022-12-10T07:39:48.861Z,100503.91
2022-12-10T07:43:50.927Z,100513.09
2022-12-10T07:47:52.366Z,100513.97
2022-12-10T07:51:53.802Z,100519.47
2022-12-10T07:55:55.612Z,100522.44
2022-12-10T07:59:57.032Z,100525.34
2022-12-10T08:03:58.553Z,100525.63
2022-12-10T08:08:04.083Z,100528.81
2022-12-10T08:12:08.202Z,100528.88
2022-12-10T08:16:14.202Z,100539.31
2022-12-10T08:20:15.702Z,100540.28
2022-12-10T08:24:17.125Z,100539.44
2022-12-10T08:28:18.567Z,100537.84
2022-12-10T08:32:19.996Z,100542.97
2022-12-10T08:36:21.508Z,100550.00
2022-12-10T08:40:22.967Z,100547.75
2022-12-10T08:44:24.378Z,100543.09
2022-12-10T08:48:25.837Z,100546.16
2022-12-10T08:52:30.112Z,100551.16
2022-12-10T08:56:31.890Z,100553.25
2022-12-10T09:00:33.388Z,100564.34
2022-12-10T09:04:34.812Z,100564.25
2022-12-10T09:08:36.766Z,100560.63
2022-12-10T09:12:38.358Z,100561.88
2022-12-10T09:16:40.251Z,100565.44
2022-12-10T09:20:41.720Z,100570.78
2022-12-10T09:24:43.197Z,100570.84
2022-12-10T09:28:46.181Z,100570.88
2022-12-10T09:32:47.591Z,100568.06
2022-12-10T09:36:49.059Z,100560.31
2022-12-10T09:41:49.114Z,100559.63
2022-12-10T09:46:24.903Z,100559.97
2022-12-10T09:50:28.972Z,100554.06
2022-12-10T09:54:59.688Z,100557.53
2022-12-10T09:59:11.752Z,100552.84
2022-12-10T10:03:15.401Z,100558.19
2022-12-10T10:07:29.899Z,100551.56
2022-12-10T10:11:34.161Z,100562.25
2022-12-10T10:15:38.638Z,100554.81
2022-12-10T10:19:42.117Z,100559.69
2022-12-10T10:23:45.904Z,100564.09
2022-12-10T10:27:47.703Z,100555.78
2022-12-10T10:32:14.042Z,100555.28
2022-12-10T10:36:15.556Z,100550.59
2022-12-10T10:40:37.198Z,100553.75
2022-12-10T10:44:39.756Z,100544.34
2022-12-10T10:48:41.256Z,100548.91
2022-12-10T10:52:43.009Z,100540.22
2022-12-10T10:56:44.768Z,100542.28
2022-12-10T11:01:07.007Z,100534.44
2022-12-10T11:05:09.713Z,100532.78
2022-12-10T11:09:27.731Z,100532.78
2022-12-10T11:13:31.721Z,100531.00
2022-12-10T11:17:33.137Z,100523.97
2022-12-10T11:21:35.598Z,100527.72
2022-12-10T11:25:57.449Z,100513.19
2022-12-10T11:30:05.658Z,100515.69
2022-12-10T11:34:30.732Z,100519.91
2022-12-10T11:38:48.224Z,100519.22
2022-12-10T11:43:07.215Z,100522.56
2022-12-10T11:47:30.633Z,100512.09
2022-12-10T11:52:01.403Z,100513.41
2022-12-10T11:56:08.577Z,100517.91
2022-12-10T12:00:28.541Z,100523.81
2022-12-10T12:04:44.841Z,100528.84
2022-12-10T12:09:13.760Z,100526.59
2022-12-10T12:13:42.521Z,100525.34
2022-12-10T12:17:56.689Z,100520.13
2022-12-10T12:22:06.887Z,100531.22
2022-12-10T12:26:14.305Z,100532.56
2022-12-10T12:30:19.546Z,100538.47
2022-12-10T12:34:50.405Z,100537.69
2022-12-10T12:39:00.590Z,100544.13
2022-12-10T12:43:13.245Z,100538.00
2022-12-10T12:47:32.193Z,100546.28
2022-12-10T12:51:42.927Z,100531.28
2022-12-10T12:56:03.155Z,100532.38
2022-12-10T13:00:19.172Z,100539.97
2022-12-10T13:04:21.068Z,100541.16
2022-12-10T13:08:22.520Z,100548.72
2022-12-10T13:12:30.793Z,100546.34
2022-12-10T13:16:47.514Z,100549.88
2022-12-10T13:21:29.638Z,100552.09
2022-12-10T13:25:55.669Z,100557.50
2022-12-10T13:30:01.428Z,100569.75
2022-12-10T13:34:02.791Z,100565.34
2022-12-10T13:38:20.937Z,100564.31
2022-12-10T13:42:48.619Z,100562.53
2022-12-10T13:46:57.590Z,100568.09
2022-12-10T13:51:23.520Z,100576.03
2022-12-10T13:55:47.256Z,100578.16
2022-12-10T14:00:16.381Z,100590.28
2022-12-10T14:04:43.384Z,100583.72
2022-12-10T14:08:55.492Z,100587.03
2022-12-10T14:12:57.438Z,100582.72
2022-12-10T14:17:06.714Z,100579.50
2022-12-10T14:21:08.665Z,100582.31
2022-12-10T14:25:14.765Z,100589.34
2022-12-10T14:29:28.774Z,100584.44
2022-12-10T14:33:32.044Z,100583.91
2022-12-10T14:37:37.092Z,100581.81
2022-12-10T14:41:41.021Z,100596.47
2022-12-10T14:45:51.761Z,100590.56
2022-12-10T14:49:56.174Z,100596.41
2022-12-10T14:53:57.671Z,100600.00
2022-12-10T14:58:02.473Z,100596.91
2022-12-10T15:02:15.275Z,100600.91
2022-12-10T15:06:19.714Z,100601.38
2022-12-10T15:10:33.441Z,100604.91
2022-12-10T15:14:37.302Z,100606.31
2022-12-10T15:18:39.268Z,100608.03
2022-12-10T15:22:40.796Z,100605.44
2022-12-10T15:26:46.694Z,100605.75
2022-12-10T15:30:51.996Z,100606.56
2022-12-10T15:34:59.972Z,100612.66
2022-12-10T15:39:13.653Z,100608.69
2022-12-10T15:43:21.231Z,100609.69
2022-12-10T15:47:27.489Z,100614.53
2022-12-10T15:51:28.944Z,100621.88
2022-12-10T15:55:30.404Z,100622.69
2022-12-10T15:59:31.850Z,100620.56
2022-12-10T16:03:33.737Z,100617.63
2022-12-10T16:07:35.180Z,100615.13
2022-12-10T16:11:36.872Z,100628.13
2022-12-10T16:16:02.071Z,100626.06
2022-12-10T16:20:33.320Z,100620.91
2022-12-10T16:24:34.805Z,100619.50
2022-12-10T16:28:36.264Z,100630.06
2022-12-10T16:32:37.716Z,100626.00
2022-12-10T16:36:39.401Z,100627.94
2022-12-10T16:40:43.010Z,100630.66
2022-12-10T16:44:44.463Z,100623.81
2022-12-10T16:48:45.949Z,100626.94
2022-12-10T16:52:47.565Z,100633.44
2022-12-10T16:56:49.073Z,100632.84
2022-12-10T17:00:53.828Z,100632.44
2022-12-10T17:04:55.637Z,100631.59
2022-12-10T17:08:57.061Z,100637.75
2022-12-10T17:12:58.690Z,100636.34
2022-12-10T17:17:03.729Z,100627.59
2022-12-10T17:21:05.413Z,100639.31
2022-12-10T17:25:07.289Z,100640.09
2022-12-10T17:29:30.985Z,100645.66
2022-12-10T17:33:32.770Z,100639.72
2022-12-10T17:37:34.592Z,100642.34
2022-12-10T17:41:40.204Z,100637.75
2022-12-10T17:45:43.026Z,100641.38
2022-12-10T17:49:45.084Z,100644.25
2022-12-10T17:53:46.974Z,100650.88
2022-12-10T17:57:49.403Z,100644.03
2022-12-10T18:01:51.849Z,100641.88
2022-12-10T18:05:53.979Z,100646.22
2022-12-10T18:09:55.685Z,100639.88
2022-12-10T18:13:57.874Z,100647.78
2022-12-10T18:18:00.933Z,100646.06
2022-12-10T18:22:02.411Z,100651.50
2022-12-10T18:26:12.088Z,100651.50
2022-12-10T18:30:20.277Z,100653.16
2022-12-10T18:34:21.703Z,100655.59
2022-12-10T18:38:23.104Z,100666.25
2022-12-10T18:42:24.619Z,100659.47
2022-12-10T18:46:28.319Z,100669.78
2022-12-10T18:50:30.423Z,100658.13
2022-12-10T18:54:32.457Z,100661.22
2022-12-10T18:58:34.188Z,100655.56
2022-12-10T19:02:35.930Z,100663.59
2022-12-10T19:06:38.500Z,100665.72
2022-12-10T19:10:40.052Z,100669.66
2022-12-10T19:14:41.656Z,100667.44
2022-12-10T19:18:45.369Z,100659.84
2022-12-10T19:22:46.984Z,100665.84
2022-12-10T19:26:48.746Z,100669.56
2022-12-10T19:30:54.505Z,100671.53
2022-12-10T19:34:56.403Z,100680.50
2022-12-10T19:38:58.116Z,100676.84
2022-12-10T19:43:00.355Z,100681.94
2022-12-10T19:47:02.273Z,100684.41
2022-12-10T19:51:03.783Z,100681.50
2022-12-10T19:55:07.963Z,100683.66
2022-12-10T19:59:19.718Z,100687.00
2022-12-10T20:03:21.514Z,100682.25
2022-12-10T20:07:23.259Z,100689.06
2022-12-10T20:11:25.222Z,100686.00
2022-12-10T20:15:26.673Z,100689.03
2022-12-10T20:19:28.203Z,100685.81
2022-12-10T20:23:29.690Z,100684.63
2022-12-10T20:27:31.464Z,100684.78
2022-12-10T20:31:33.505Z,100686.13
2022-12-10T20:35:40.989Z,100692.25
2022-12-10T20:39:49.538Z,100681.28
2022-12-10T20:43:58.552Z,100687.88
2022-12-10T20:48:00.846Z,100680.75
2022-12-10T20:52:02.716Z,100688.91
2022-12-10T20:56:05.008Z,100682.44
2022-12-10T21:00:15.975Z,100675.59
2022-12-10T21:04:17.912Z,100681.91
2022-12-10T21:08:23.292Z,100677.84
2022-12-10T21:12:25.052Z,100684.66
2022-12-10T21:16:26.691Z,100683.28
2022-12-10T21:20:29.346Z,100674.31
2022-12-10T21:24:31.248Z,100669.72
2022-12-10T21:28:32.804Z,100678.22
2022-12-10T21:32:34.488Z,100678.78
2022-12-10T21:36:36.385Z,100674.72
2022-12-10T21:40:40.951Z,100676.94
2022-12-10T21:44:42.456Z,100685.38
2022-12-10T21:48:43.961Z,100679.94
2022-12-10T21:52:45.421Z,100676.66
2022-12-10T21:56:46.998Z,100686.53
2022-12-10T22:00:58.397Z,100683.81
2022-12-10T22:05:00.874Z,100674.00
2022-12-10T22:09:02.329Z,100673.16
2022-12-10T22:13:04.021Z,100668.06
2022-12-10T22:17:05.547Z,100655.56
2022-12-10T22:21:07.081Z,100652.56
2022-12-10T22:25:09.018Z,100655.03
2022-12-10T22:29:14.126Z,100649.94
2022-12-10T22:33:15.646Z,100657.47
2022-12-10T22:37:17.206Z,100655.31
2022-12-10T22:41:18.643Z,100660.44
2022-12-10T22:45:25.479Z,100663.72
2022-12-10T22:49:26.946Z,100655.09
2022-12-10T22:53:37.522Z,100655.09
2022-12-10T22:57:38.978Z,100643.69
2022-12-10T23:01:40.579Z,100637.72
2022-12-10T23:05:42.034Z,100648.63
2022-12-10T23:09:44.279Z,100643.69
2022-12-10T23:13:46.025Z,100646.94
2022-12-10T23:17:47.483Z,100647.22
2022-12-10T23:21:48.941Z,100642.88
2022-12-10T23:25:51.422Z,100648.00
2022-12-10T23:29:53.022Z,100644.81
2022-12-10T23:33:54.465Z,100648.59
2022-12-10T23:37:55.937Z,100655.69
2022-12-10T23:41:57.577Z,100648.81
2022-12-10T23:45:59.703Z,100645.38
2022-12-10T23:50:01.189Z,100639.94
2022-12-10T23:54:03.254Z,100638.28
2022-12-10T23:58:04.645Z,100639.66
